Flight Track Log - Related Links

Times and Time Zones

All times are in EDT time to prevent confusion due to time zone crossing. See the N6ZQ flight status page for this flight to view local times or setup timezone preferences in your user account.

Time Position Orientation Groundspeed Altitude Reporting Facility
EDT Latitude Longitude Course Direction KTS MPH feet Rate Location/Type
Wed 01:09:11 PM 38.3333 -77.3667 237° Southwest 152 175 2,200  Level Potomac TRACON
Wed 01:10:11 PM 38.3167 -77.4000 237° Southwest 174 200 2,900 900 Climbing Potomac TRACON
Wed 01:11:11 PM 38.3167 -77.4500 270° West 174 200 4,000 1,043 Climbing Potomac TRACON
Wed 01:12:06 PM 38.3167 -77.5000 270° West 164 189 4,900 992 Climbing Potomac TRACON
Wed 01:13:12 PM 38.3167 -77.5667 270° West 173 199 6,000 993 Climbing Potomac TRACON
Wed 01:14:25 PM 38.2811 -77.6311 235° Southwest 181 208 7,200 992 Climbing Washington Center
Wed 01:15:25 PM 38.2572 -77.6806 238° Southwest 181 208 8,200 1,017 Climbing Washington Center
Wed 01:16:23 PM 38.2314 -77.7303 237° Southwest 176 203 9,200 857 Climbing Washington Center
Wed 01:17:24 PM 38.2053 -77.7822 237° Southwest 176 203 9,900 347 Climbing Washington Center
Wed 01:18:24 PM 38.1753 -77.8394 236° Southwest 184 212 9,900 50 Level Washington Center
Wed 01:19:23 PM 38.1447 -77.9019 238° Southwest 198 228 10,000 50 Climbing Washington Center
Wed 01:20:24 PM 38.1103 -77.9669 236° Southwest 212 244 10,000  Level Washington Center
Wed 01:21:25 PM 38.0797 -78.0292 238° Southwest 212 244 10,000  Level Washington Center
Wed 01:22:25 PM 38.0492 -78.0914 238° Southwest 212 244 10,000  Level Washington Center
Wed 01:23:23 PM 38.0147 -78.1483 232° Southwest 207 238 10,000  Level Washington Center
Wed 01:24:23 PM 37.9800 -78.2078 233° Southwest 207 238 10,000  Level Washington Center
Wed 01:25:24 PM 37.9478 -78.2567 230° Southwest 212 244 10,000  Level Washington Center
Wed 01:26:25 PM 37.9111 -78.3081 228° Southwest 207 238 10,000  Level Washington Center
Wed 01:27:23 PM 37.8722 -78.3644 229° Southwest 207 238 10,000  Level Washington Center
Wed 01:28:24 PM 37.8356 -78.4183 229° Southwest 207 238 10,000  Level Washington Center
Wed 01:29:24 PM 37.7925 -78.4772 227° Southwest 207 238 10,000  Level Washington Center
Wed 01:30:23 PM 37.7533 -78.5336 229° Southwest 207 238 10,000  Level Washington Center
Wed 01:31:24 PM 37.7189 -78.5872 231° Southwest 207 238 10,000  Level Washington Center
Wed 01:32:24 PM 37.6778 -78.6408 226° Southwest 212 244 10,000  Level Washington Center
Wed 01:33:25 PM 37.6453 -78.6892 230° Southwest 212 244 10,000  Level Washington Center
Wed 01:34:23 PM 37.6061 -78.7453 229° Southwest 212 244 10,000  Level Washington Center
Wed 01:35:24 PM 37.5694 -78.7961 228° Southwest 212 244 10,000  Level Washington Center
Wed 01:36:25 PM 37.5306 -78.8497 228° Southwest 212 244 10,000  Level Washington Center
Wed 01:37:25 PM 37.4892 -78.9081 228° Southwest 212 244 10,000  Level Washington Center
Wed 01:38:23 PM 37.4500 -78.9639 229° Southwest 212 244 10,000  Level Washington Center
Wed 01:39:24 PM 37.4131 -79.0172 229° Southwest 212 244 10,000  Level Washington Center
Wed 01:40:25 PM 37.3742 -79.0678 226° Southwest 212 244 10,000  Level Washington Center
Wed 01:41:25 PM 37.3394 -79.1158 228° Southwest 212 244 10,000  Level Washington Center
Wed 01:42:25 PM 37.3022 -79.1714 230° Southwest 212 244 10,000  Level Washington Center
Wed 01:43:23 PM 37.2631 -79.2244 227° Southwest 212 244 10,000  Level Washington Center
Wed 01:44:24 PM 37.2258 -79.2800 230° Southwest 212 244 10,000  Level Washington Center
Wed 01:45:25 PM 37.1886 -79.3356 230° Southwest 212 244 10,000  Level Washington Center
Wed 01:46:25 PM 37.1492 -79.3964 231° Southwest 212 244 10,000  Level Washington Center
Wed 01:47:23 PM 37.1100 -79.4517 228° Southwest 212 244 10,000  Level Washington Center
Wed 01:48:23 PM 37.0728 -79.5069 230° Southwest 212 244 10,000  Level Washington Center
Wed 01:49:23 PM 37.0353 -79.5625 230° Southwest 212 244 10,000  Level Washington Center
Wed 01:50:25 PM 37.0025 -79.6128 231° Southwest 212 244 10,000  Level Washington Center
Wed 01:51:23 PM 36.9631 -79.6678 228° Southwest 212 244 10,000  Level Washington Center
Wed 01:52:23 PM 36.9256 -79.7256 231° Southwest 212 244 10,000  Level Washington Center
Wed 01:53:24 PM 36.8881 -79.7808 230° Southwest 212 244 10,000  Level Washington Center
Wed 01:55:00 PM 36.8258 -79.8624 226° Southwest  Level FlightAware Approximate
Wed 02:02:00 PM 36.5619 -80.2279 228° Southwest  Level FlightAware Approximate
Wed 02:03:00 PM 36.5240 -80.2798 229° Southwest  Level FlightAware Approximate
Wed 02:03:07 PM 36.5128 -80.3192 228° Southwest 212 244 10,000  Level Atlanta Center
Wed 02:04:00 PM 36.4880 -80.3304 229° Southwest  Level FlightAware Approximate
Wed 02:04:07 PM 36.4708 -80.3806 230° Southwest 217 250 10,000  Level Atlanta Center
Wed 02:05:00 PM 36.4520 -80.3810 228° Southwest  Level FlightAware Approximate
Wed 02:05:07 PM 36.4328 -80.4339 228° Southwest 217 250 10,000  Level Atlanta Center
Wed 02:06:00 PM 36.4160 -80.4314 228° Southwest  Level FlightAware Approximate
Wed 02:06:07 PM 36.3928 -80.4897 228° Southwest 217 250 10,000  Level Atlanta Center
Wed 02:07:00 PM 36.3799 -80.4819 228° Southwest  Level FlightAware Approximate
Wed 02:07:07 PM 36.3550 -80.5483 231° Southwest 217 250 10,000  Level Atlanta Center
Wed 02:08:07 PM 36.3208 -80.5986 230° Southwest 217 250 10,000  Level Atlanta Center
Wed 02:09:07 PM 36.2828 -80.6517 228° Southwest 217 250 10,000  Level Atlanta Center
Wed 02:10:07 PM 36.2425 -80.7075 228° Southwest 217 250 10,000  Level Atlanta Center
Wed 02:11:07 PM 36.2044 -80.7631 230° Southwest 217 250 10,000 50 Level Atlanta Center
Wed 02:12:07 PM 36.1661 -80.8186 229° Southwest 212 244 10,100  Climbing Atlanta Center
Wed 02:13:07 PM 36.1239 -80.8794 229° Southwest 212 244 10,000 -50 Descending Atlanta Center
Wed 02:14:07 PM 36.0858 -80.9325 228° Southwest 212 244 10,000  Level Atlanta Center
Wed 02:15:07 PM 36.0475 -80.9903 231° Southwest 212 244 10,000  Level Atlanta Center
Wed 02:16:07 PM 36.0092 -81.0431 228° Southwest 212 244 10,000  Level Atlanta Center
Wed 02:17:07 PM 35.9708 -81.0983 229° Southwest 212 244 10,000  Level Atlanta Center
Wed 02:18:07 PM 35.9306 -81.1536 228° Southwest 212 244 10,000  Level Atlanta Center
Wed 02:19:07 PM 35.8922 -81.2114 231° Southwest 212 244 10,000  Level Atlanta Center
Wed 02:20:07 PM 35.8561 -81.2692 232° Southwest 218 251 10,000  Level Atlanta Center
Wed 02:21:07 PM 35.8281 -81.3317 241° Southwest 213 245 10,000  Level Atlanta Center
Wed 02:22:07 PM 35.8006 -81.3992 243° Southwest 213 245 10,000  Level Atlanta Center
Wed 02:23:07 PM 35.7725 -81.4614 241° Southwest 213 245 10,000  Level Atlanta Center
Wed 02:24:07 PM 35.7361 -81.5136 229° Southwest 208 239 10,000  Level Atlanta Center
Wed 02:25:07 PM 35.6892 -81.5611 219° Southwest 208 239 10,000  Level Atlanta Center
Wed 02:26:07 PM 35.6439 -81.6033 217° Southwest 214 246 10,000  Level Atlanta Center
Wed 02:27:07 PM 35.6031 -81.6456 220° Southwest 214 246 10,000 -250 Level Atlanta Center
Wed 02:28:07 PM 35.5558 -81.6878 216° Southwest 214 246 9,500 -450 Descending Atlanta Center
Wed 02:29:07 PM 35.5047 -81.7350 217° Southwest 219 252 9,100 -450 Descending Atlanta Center
Wed 02:30:07 PM 35.4575 -81.7822 219° Southwest 219 252 8,600 -500 Descending Atlanta Center
Wed 02:31:07 PM 35.4106 -81.8269 218° Southwest 219 252 8,100 -550 Descending Atlanta Center
Wed 02:32:07 PM 35.3611 -81.8742 218° Southwest 219 252 7,500 -550 Descending Atlanta Center
Wed 02:33:07 PM 35.3139 -81.9161 216° Southwest 219 252 7,000 -500 Descending Atlanta Center
Wed 02:34:07 PM 35.2667 -81.9606 218° Southwest 219 252 6,500 -500 Descending Atlanta Center
Wed 02:35:07 PM 35.2111 -82.0025 212° Southwest 219 252 6,000 -250 Descending Atlanta Center
Wed 02:36:07 PM 35.1572 -82.0242 198° South 213 245 6,000  Level Atlanta Center
Wed 02:37:07 PM 35.1072 -82.0356 191° South 202 232 6,000  Level Atlanta Center
Wed 02:38:07 PM 35.0511 -82.0419 185° South 202 232 6,000  Level Atlanta Center
Wed 02:39:07 PM 34.9989 -82.0483 186° South 202 232 6,000 -50 Level Atlanta Center
Wed 02:40:07 PM 34.9472 -82.0647 195° South 197 227 5,900 -100 Descending Atlanta Center
Wed 02:42:00 PM 34.9087 -82.1855 249° West  Level FlightAware Approximate
Wed 02:49:00 PM 34.8333 -82.3500 219° Southwest  Level FlightAware Approximate
Wed 02:50:00 PM 34.8479 -82.3500 219° Southwest  Level Estimated
Wed 02:51:00 PM 34.8479 -82.3500 219° Southwest  Level Estimated
Wed 02:52:00 PM 34.8479 -82.3500 219° Southwest  Level Estimated
Wed 02:53:00 PM 34.8479 -82.3500 219° Southwest  Level Estimated
Wed 02:54:00 PM 34.8479 -82.3500 219° Southwest  Level Estimated

Login

Don't have an account? Register now (free) for customized features, flight alerts, and more!